Time;durP1;ratioP1;P1;durP2;ratioP2;P2;SDS_P1;SDS_P2;PMS_P1;PMS_P2;Temp;Humidity;BMP_temperature;BMP_pressure;BME280_temperature;BME280_humidity;BME280_pressure;Samples;Min_cycle;Max_cycle;Signal;HPM_P1;HPM_P2
2023/07/25 00:05:13;;;;;;;5.63;4.00;;;17.70;99.90;;;;;;10375378;28;20201;-77
2023/07/25 00:10:35;;;;;;;6.90;4.03;;;17.70;99.90;;;;;;10357423;28;20210;-76
2023/07/25 00:15:56;;;;;;;6.32;4.30;;;17.70;99.90;;;;;;10372312;28;20362;-76
2023/07/25 00:21:18;;;;;;;6.00;4.10;;;17.70;99.90;;;;;;10359435;28;20186;-76
2023/07/25 00:26:39;;;;;;;7.95;4.05;;;17.60;99.90;;;;;;10329734;28;20215;-76
2023/07/25 00:32:00;;;;;;;4.60;3.78;;;17.60;99.90;;;;;;10358940;28;20278;-76
2023/07/25 00:37:21;;;;;;;6.57;3.63;;;17.60;99.90;;;;;;10371485;28;20197;-78
2023/07/25 00:42:43;;;;;;;11.70;6.88;;;17.50;99.90;;;;;;10357124;28;20208;-77
2023/07/25 00:48:05;;;;;;;9.75;5.03;;;17.50;99.90;;;;;;10347096;28;20196;-77
2023/07/25 00:53:27;;;;;;;7.55;4.82;;;17.40;99.90;;;;;;10356436;28;20232;-79
2023/07/25 00:58:48;;;;;;;7.40;4.95;;;17.40;99.90;;;;;;10325772;28;20248;-77
2023/07/25 01:04:10;;;;;;;6.47;4.78;;;17.40;99.90;;;;;;10358033;28;20213;-76
2023/07/25 01:09:42;;;;;;;6.32;4.88;;;17.40;99.90;;;;;;10357319;28;20201;-76
2023/07/25 01:15:03;;;;;;;5.60;4.45;;;17.40;99.90;;;;;;10345908;28;20462;-77
2023/07/25 01:20:25;;;;;;;6.78;4.78;;;17.30;99.90;;;;;;10356151;28;20193;-75
2023/07/25 01:25:47;;;;;;;10.05;4.20;;;17.40;99.90;;;;;;10355646;28;20241;-77
2023/07/25 01:31:08;;;;;;;5.30;4.30;;;17.40;99.90;;;;;;10341865;28;20208;-75
2023/07/25 01:36:30;;;;;;;7.05;4.30;;;17.50;99.90;;;;;;10349380;28;20258;-80
2023/07/25 01:41:52;;;;;;;5.20;4.55;;;17.40;99.90;;;;;;10386724;28;20205;-76
2023/07/25 01:47:13;;;;;;;5.32;3.80;;;17.40;99.90;;;;;;10355298;28;20209;-76
2023/07/25 01:52:34;;;;;;;8.23;4.07;;;17.40;99.90;;;;;;10340843;28;20279;-77
2023/07/25 01:57:56;;;;;;;4.55;3.85;;;17.40;99.90;;;;;;10321185;28;20496;-76
2023/07/25 02:03:18;;;;;;;4.43;3.53;;;17.40;99.90;;;;;;10354246;28;20197;-78
2023/07/25 02:08:39;;;;;;;6.50;3.85;;;17.30;99.90;;;;;;10341233;28;20202;-77
2023/07/25 02:14:01;;;;;;;5.82;4.05;;;17.20;99.90;;;;;;10340410;28;20538;-76
2023/07/25 02:19:22;;;;;;;4.15;3.33;;;17.10;99.90;;;;;;10345954;28;20213;-79
2023/07/25 02:24:43;;;;;;;6.15;3.65;;;17.00;99.90;;;;;;10327646;28;20247;-76
2023/07/25 02:30:05;;;;;;;4.72;3.35;;;17.00;99.90;;;;;;10321560;28;20209;-78
2023/07/25 02:35:27;;;;;;;5.55;3.42;;;17.00;99.90;;;;;;10369293;28;20247;-77
2023/07/25 02:40:48;;;;;;;8.55;3.47;;;17.10;99.90;;;;;;10367157;28;20244;-76
2023/07/25 02:46:09;;;;;;;3.10;2.75;;;17.10;99.90;;;;;;10352703;28;20209;-76
2023/07/25 02:51:32;;;;;;;4.10;2.80;;;17.10;99.90;;;;;;10339359;28;20220;-79
2023/07/25 02:56:54;;;;;;;3.40;3.10;;;17.00;99.90;;;;;;10354378;28;20256;-75
2023/07/25 03:02:15;;;;;;;2.85;2.58;;;17.00;99.90;;;;;;10361346;28;20237;-77
2023/07/25 03:07:37;;;;;;;3.22;2.92;;;17.10;99.90;;;;;;10352929;28;20200;-76
2023/07/25 03:12:58;;;;;;;3.45;3.05;;;17.10;99.90;;;;;;10353013;28;20233;-75
2023/07/25 03:18:20;;;;;;;3.08;2.83;;;17.10;99.90;;;;;;10349494;28;20201;-76
2023/07/25 03:23:42;;;;;;;4.80;3.40;;;17.10;99.90;;;;;;10353091;28;20232;-75
2023/07/25 03:29:03;;;;;;;3.50;3.10;;;17.20;99.90;;;;;;10337864;28;20209;-75
2023/07/25 03:34:25;;;;;;;3.45;3.08;;;17.20;99.90;;;;;;10353140;28;20264;-76
2023/07/25 03:39:46;;;;;;;4.18;3.50;;;17.20;99.90;;;;;;10352710;28;20235;-76
2023/07/25 03:45:08;;;;;;;4.05;3.53;;;17.40;99.90;;;;;;10355652;28;20216;-76
2023/07/25 03:50:29;;;;;;;4.10;3.72;;;17.30;99.90;;;;;;10372211;28;20193;-75
2023/07/25 03:55:50;;;;;;;5.20;3.67;;;17.40;99.90;;;;;;10359273;28;20229;-78
2023/07/25 04:01:12;;;;;;;5.20;4.13;;;17.40;99.90;;;;;;10358890;28;20211;-77
2023/07/25 04:06:33;;;;;;;4.38;3.95;;;17.30;99.90;;;;;;10372814;28;20195;-78
2023/07/25 04:11:54;;;;;;;3.60;3.30;;;17.40;99.90;;;;;;10344767;28;20481;-79
2023/07/25 04:17:16;;;;;;;3.90;3.60;;;17.40;99.90;;;;;;10357799;28;20387;-76
2023/07/25 04:22:38;;;;;;;4.22;3.83;;;17.40;99.90;;;;;;10358338;28;20189;-76
2023/07/25 04:27:59;;;;;;;3.75;3.40;;;17.30;99.90;;;;;;10356573;28;20252;-75
2023/07/25 04:33:21;;;;;;;4.57;3.83;;;17.20;50.20;;;;;;10358267;28;20283;-79
2023/07/25 04:38:42;;;;;;;7.13;3.80;;;17.10;1.00;;;;;;10319377;28;20200;-77
2023/07/25 04:44:04;;;;;;;5.80;3.53;;;17.10;1.00;;;;;;10343336;28;20231;-76
2023/07/25 04:49:25;;;;;;;6.25;3.85;;;17.10;1.00;;;;;;10359523;28;20275;-76
2023/07/25 04:54:47;;;;;;;4.15;3.25;;;17.20;29.90;;;;;;10370488;28;20228;-76
2023/07/25 05:00:08;;;;;;;4.63;3.50;;;17.30;14.80;;;;;;10340769;28;20230;-74
2023/07/25 05:05:30;;;;;;;3.92;3.55;;;17.40;1.00;;;;;;10358880;28;20245;-77
2023/07/25 05:10:54;;;;;;;3.45;3.15;;;17.50;1.00;;;;;;10354128;28;20194;-82
2023/07/25 05:16:15;;;;;;;4.15;3.58;;;17.50;1.00;;;;;;10371147;28;20597;-83
2023/07/25 05:21:36;;;;;;;4.55;3.80;;;17.60;1.00;;;;;;10358475;28;20200;-84
2023/07/25 05:26:58;;;;;;;3.75;3.30;;;17.60;1.00;;;;;;10354573;28;20205;-77
2023/07/25 05:32:22;;;;;;;4.50;3.92;;;17.50;1.00;;;;;;10341952;28;20241;-82
2023/07/25 05:37:43;;;;;;;5.88;3.83;;;17.50;1.00;;;;;;10349577;28;20220;-78
2023/07/25 05:43:04;;;;;;;5.63;3.50;;;17.60;1.00;;;;;;10348721;28;20255;-79
2023/07/25 05:48:26;;;;;;;5.25;3.70;;;17.70;1.00;;;;;;10351609;28;20209;-79
2023/07/25 05:53:47;;;;;;;4.45;3.20;;;17.80;1.00;;;;;;10370947;28;20459;-77
2023/07/25 05:59:09;;;;;;;8.20;3.70;;;17.90;1.00;;;;;;10368466;28;20228;-77
2023/07/25 06:04:30;;;;;;;4.47;3.15;;;18.10;1.00;;;;;;10315161;28;20194;-85
2023/07/25 06:09:51;;;;;;;6.38;3.42;;;18.30;1.00;;;;;;10351384;28;20543;-82
2023/07/25 06:15:12;;;;;;;4.47;3.35;;;18.30;99.90;;;;;;10369523;28;20527;-78
2023/07/25 06:20:34;;;;;;;4.70;3.13;;;18.30;1.00;;;;;;10354524;28;20267;-86
2023/07/25 06:25:56;;;;;;;4.97;3.22;;;18.40;99.90;;;;;;10354725;28;20265;-84
2023/07/25 06:31:17;;;;;;;3.47;2.60;;;18.60;1.00;;;;;;10353444;28;20451;-78
2023/07/25 06:36:39;;;;;;;3.78;3.03;;;18.60;99.90;;;;;;10354233;28;20245;-79
2023/07/25 06:42:00;;;;;;;3.78;2.80;;;18.60;1.00;;;;;;10354101;28;20206;-78
2023/07/25 06:47:22;;;;;;;6.22;2.97;;;18.60;99.90;;;;;;10338338;28;20213;-80
2023/07/25 06:52:44;;;;;;;2.78;2.55;;;18.80;1.00;;;;;;10354277;28;20531;-84
2023/07/25 06:58:05;;;;;;;3.78;3.17;;;19.10;1.00;;;;;;10353346;28;20201;-82
2023/07/25 07:03:27;;;;;;;6.72;3.03;;;19.00;99.90;;;;;;10353839;28;20247;-78
2023/07/25 07:08:49;;;;;;;7.85;2.80;;;19.00;1.00;;;;;;10354322;28;20324;-81
2023/07/25 07:14:11;;;;;;;4.88;3.17;;;19.40;24.60;;;;;;10360857;28;20237;-79
2023/07/25 07:19:32;;;;;;;5.57;2.40;;;20.30;79.70;;;;;;10349148;28;20212;-79
2023/07/25 07:24:55;;;;;;;5.20;2.53;;;21.10;1.00;;;;;;10357083;28;20540;-80
2023/07/25 07:30:17;;;;;;;5.03;2.72;;;21.20;99.90;;;;;;10365009;28;20237;-79
2023/07/25 07:35:38;;;;;;;12.48;3.08;;;21.50;1.00;;;;;;10352699;28;20228;-81
2023/07/25 07:40:59;;;;;;;3.65;2.63;;;21.30;99.90;;;;;;10370642;28;20205;-80
2023/07/25 07:46:21;;;;;;;4.68;2.65;;;21.50;99.90;;;;;;10317586;28;20400;-80
2023/07/25 07:52:01;;;;;;;4.90;2.38;;;21.20;99.90;;;;;;10359791;28;20213;-83
2023/07/25 07:57:25;;;;;;;4.82;2.50;;;21.20;88.70;;;;;;10355582;28;20198;-82
2023/07/25 08:02:46;;;;;;;3.05;1.90;;;21.90;1.00;;;;;;10339321;28;20226;-85
2023/07/25 08:08:08;;;;;;;7.63;2.67;;;22.70;1.00;;;;;;10327232;28;20492;-83
2023/07/25 08:13:30;;;;;;;3.33;2.22;;;22.60;1.00;;;;;;10334940;28;20242;-86
2023/07/25 08:18:51;;;;;;;3.58;2.20;;;22.50;1.00;;;;;;10299950;28;20196;-86
2023/07/25 08:24:12;;;;;;;4.25;3.13;;;23.30;1.00;;;;;;10336866;28;20214;-80
2023/07/25 08:29:39;;;;;;;6.40;2.67;;;23.90;1.00;;;;;;10340022;28;20846;-88
2023/07/25 08:35:00;;;;;;;3.03;1.98;;;23.90;1.00;;;;;;10374390;28;20328;-85
2023/07/25 08:40:22;;;;;;;3.22;1.88;;;22.90;1.00;;;;;;10339679;28;20281;-85
2023/07/25 08:45:45;;;;;;;2.60;1.98;;;22.30;1.00;;;;;;10325876;28;20383;-81
2023/07/25 08:51:27;;;;;;;6.90;1.88;;;23.30;1.00;;;;;;10337649;28;20209;-79
2023/07/25 08:56:49;;;;;;;5.20;1.98;;;23.80;1.00;;;;;;10353871;28;20311;-85
2023/07/25 09:02:11;;;;;;;3.50;2.17;;;24.10;1.00;;;;;;10332792;28;20351;-78
2023/07/25 09:07:32;;;;;;;6.90;2.25;;;23.70;1.00;;;;;;10357877;28;20535;-84
2023/07/25 09:12:54;;;;;;;5.43;1.83;;;23.60;1.00;;;;;;10370486;28;20563;-81
2023/07/25 09:18:15;;;;;;;6.85;4.38;;;24.20;1.00;;;;;;10393131;28;20251;-87
2023/07/25 09:23:36;;;;;;;3.20;2.10;;;24.70;1.00;;;;;;10393547;28;20201;-80
2023/07/25 09:28:59;;;;;;;5.03;1.88;;;24.50;1.00;;;;;;10409514;28;20208;-84
2023/07/25 09:34:25;;;;;;;2.20;2.00;;;24.60;1.00;;;;;;10371714;28;20264;-86
2023/07/25 09:39:46;;;;;;;3.00;1.90;;;25.10;1.00;;;;;;10351352;28;20213;-82
2023/07/25 09:45:09;;;;;;;3.70;2.03;;;25.10;1.00;;;;;;10349870;28;20334;-80
2023/07/25 09:50:34;;;;;;;2.92;2.08;;;24.70;99.90;;;;;;10310589;28;20202;-81
2023/07/25 09:55:55;;;;;;;5.43;1.65;;;23.50;1.00;;;;;;10310464;28;20284;-80
2023/07/25 10:01:17;;;;;;;1.48;1.30;;;22.30;1.00;;;;;;10338536;28;20268;-80
2023/07/25 10:06:40;;;;;;;1.42;1.10;;;21.50;1.00;;;;;;10350050;28;20209;-82
2023/07/25 10:12:03;;;;;;;2.67;1.40;;;21.20;1.00;;;;;;10349361;28;20216;-83
2023/07/25 10:17:25;;;;;;;1.15;1.00;;;21.00;1.00;;;;;;10348837;28;20245;-79
2023/07/25 10:22:46;;;;;;;2.88;0.93;;;21.00;1.00;;;;;;10345121;28;20276;-80
2023/07/25 10:28:08;;;;;;;1.98;0.88;;;21.20;1.00;;;;;;10350741;28;20194;-81
2023/07/25 10:33:36;;;;;;;2.38;1.10;;;21.60;1.00;;;;;;10356161;28;20298;-79
2023/07/25 10:39:09;;;;;;;3.22;1.20;;;22.10;1.00;;;;;;10348084;28;20384;-80
2023/07/25 10:44:36;;;;;;;2.92;1.30;;;22.60;1.00;;;;;;10348358;28;20281;-81
2023/07/25 10:49:57;;;;;;;2.45;1.33;;;23.90;1.00;;;;;;10347639;28;20206;-82
2023/07/25 10:55:19;;;;;;;2.30;1.40;;;23.60;1.00;;;;;;10338117;28;20245;-80
2023/07/25 11:00:41;;;;;;;4.22;1.55;;;23.00;1.00;;;;;;10334035;28;20213;-80
2023/07/25 11:06:08;;;;;;;8.48;3.83;;;22.40;1.00;;;;;;10356596;28;20237;-79
2023/07/25 11:11:30;;;;;;;10.40;3.22;;;21.80;1.00;;;;;;10355357;28;20210;-79
2023/07/25 11:16:53;;;;;;;7.05;2.05;;;21.20;1.00;;;;;;10355478;28;20488;-81
2023/07/25 11:22:15;;;;;;;4.88;2.45;;;20.60;1.00;;;;;;10383832;28;20209;-82
2023/07/25 11:27:44;;;;;;;7.22;2.50;;;20.50;99.90;;;;;;10397647;28;20200;-84
2023/07/25 11:33:05;;;;;;;7.25;2.42;;;20.50;80.80;;;;;;10394587;28;20236;-85
2023/07/25 11:38:27;;;;;;;2.40;1.58;;;20.80;1.00;;;;;;10330785;28;20204;-80
2023/07/25 11:43:49;;;;;;;2.85;1.55;;;21.10;77.60;;;;;;10328842;28;20226;-85
2023/07/25 11:49:13;;;;;;;2.85;1.38;;;21.10;1.00;;;;;;10374725;28;20237;-88
2023/07/25 11:54:36;;;;;;;2.85;0.90;;;20.90;99.90;;;;;;10394408;28;20221;-77
2023/07/25 11:59:59;;;;;;;1.92;1.20;;;20.50;73.60;;;;;;10408727;28;20196;-86
2023/07/25 12:05:32;;;;;;;1.63;1.05;;;20.40;93.30;;;;;;10355198;28;20253;-80
2023/07/25 12:10:55;;;;;;;2.85;1.40;;;20.50;1.00;;;;;;10353546;28;20217;-79
2023/07/25 12:16:35;;;;;;;1.50;1.17;;;20.70;1.00;;;;;;10366241;28;20227;-83
2023/07/25 12:22:04;;;;;;;2.22;1.15;;;20.80;1.00;;;;;;10369597;28;20284;-84
2023/07/25 12:27:26;;;;;;;0.80;0.77;;;20.90;1.00;;;;;;10385414;28;20243;-81
2023/07/25 12:32:47;;;;;;;3.15;1.50;;;20.90;1.00;;;;;;10394305;28;20237;-80
2023/07/25 12:38:09;;;;;;;1.77;1.20;;;21.10;1.00;;;;;;10383073;28;20212;-80
2023/07/25 12:43:31;;;;;;;2.88;1.50;;;21.20;1.00;;;;;;10349822;28;20210;-80
2023/07/25 12:48:53;;;;;;;2.97;1.27;;;21.10;1.00;;;;;;10326567;28;20202;-80
2023/07/25 12:54:14;;;;;;;1.77;1.40;;;21.10;1.00;;;;;;10325935;28;20277;-81
2023/07/25 12:59:36;;;;;;;2.03;1.20;;;21.40;1.00;;;;;;10349989;28;20225;-80
2023/07/25 13:04:57;;;;;;;3.05;1.00;;;21.90;1.00;;;;;;10337776;28;20194;-80
2023/07/25 13:10:19;;;;;;;2.08;1.20;;;22.40;1.00;;;;;;10355177;28;20209;-78
2023/07/25 13:15:41;;;;;;;1.88;0.80;;;22.70;1.00;;;;;;10359175;28;20237;-80
2023/07/25 13:21:03;;;;;;;2.47;0.90;;;22.60;1.00;;;;;;10350503;28;20198;-81
2023/07/25 13:26:25;;;;;;;2.17;0.85;;;22.70;1.00;;;;;;10352329;28;20249;-80
2023/07/25 13:31:46;;;;;;;3.20;0.95;;;22.50;1.00;;;;;;10352040;28;20233;-82
2023/07/25 13:37:08;;;;;;;3.67;1.52;;;22.50;1.00;;;;;;10350199;28;20268;-81
2023/07/25 13:42:32;;;;;;;1.90;1.00;;;22.70;1.00;;;;;;10351626;28;20226;-80
2023/07/25 13:47:53;;;;;;;2.28;1.05;;;22.90;1.00;;;;;;10374243;28;20205;-80
2023/07/25 13:53:15;;;;;;;1.35;0.93;;;23.20;1.00;;;;;;10342783;28;20579;-82
2023/07/25 13:58:37;;;;;;;1.60;0.90;;;23.00;1.00;;;;;;10340263;28;20210;-80
2023/07/25 14:04:16;;;;;;;2.08;1.00;;;23.10;1.00;;;;;;10365408;28;20182;-83
2023/07/25 14:09:38;;;;;;;2.53;1.02;;;22.90;1.00;;;;;;10350600;28;20204;-84
2023/07/25 14:15:00;;;;;;;3.00;1.10;;;22.50;1.00;;;;;;10336545;28;20222;-86
2023/07/25 14:20:23;;;;;;;0.85;0.75;;;22.40;1.00;;;;;;10319938;28;20243;-81
2023/07/25 14:25:45;;;;;;;2.35;1.10;;;22.40;1.00;;;;;;10340668;28;20217;-81
2023/07/25 14:31:06;;;;;;;1.00;0.88;;;22.30;1.00;;;;;;10391151;28;20217;-80
2023/07/25 14:36:28;;;;;;;2.05;1.83;;;22.10;1.00;;;;;;10306240;28;20316;-81
2023/07/25 14:41:51;;;;;;;1.67;1.25;;;21.90;1.00;;;;;;10388831;28;20194;-80
2023/07/25 14:47:12;;;;;;;3.80;0.80;;;22.00;1.00;;;;;;10378036;28;20212;-79
2023/07/25 14:52:34;;;;;;;2.47;1.10;;;22.00;1.00;;;;;;10333017;28;20236;-81
2023/07/25 14:57:55;;;;;;;1.48;0.90;;;22.10;1.00;;;;;;10334562;28;20309;-81
2023/07/25 15:03:18;;;;;;;2.42;0.95;;;22.20;1.00;;;;;;10363812;28;20186;-84
2023/07/25 15:08:40;;;;;;;1.20;1.08;;;22.30;1.00;;;;;;10366574;28;20236;-83
2023/07/25 15:14:02;;;;;;;3.15;1.25;;;22.00;1.00;;;;;;10350548;28;20542;-81
2023/07/25 15:19:24;;;;;;;1.60;1.02;;;21.90;1.00;;;;;;10366805;28;20252;-79
2023/07/25 15:24:46;;;;;;;1.15;0.85;;;21.90;1.00;;;;;;10370737;28;20213;-84
2023/07/25 15:30:09;;;;;;;2.15;1.25;;;21.90;1.00;;;;;;10365376;28;20215;-79
2023/07/25 15:35:30;;;;;;;1.88;1.25;;;21.90;1.00;;;;;;10388547;28;20229;-79
2023/07/25 15:40:52;;;;;;;2.20;1.20;;;21.80;1.00;;;;;;10342398;28;20354;-78
2023/07/25 15:46:13;;;;;;;2.35;1.30;;;21.60;1.00;;;;;;10350487;28;20207;-79
2023/07/25 15:51:35;;;;;;;2.22;1.40;;;21.30;1.00;;;;;;10375771;28;20198;-82
2023/07/25 15:56:57;;;;;;;3.47;1.67;;;21.40;1.00;;;;;;10372594;28;20249;-80
2023/07/25 16:02:18;;;;;;;2.38;1.25;;;21.50;1.00;;;;;;10375099;28;20272;-78
2023/07/25 16:07:40;;;;;;;1.92;1.23;;;21.50;1.00;;;;;;10358503;28;20496;-79
2023/07/25 16:13:01;;;;;;;2.65;1.33;;;21.40;1.00;;;;;;10367719;28;20229;-79
2023/07/25 16:18:23;;;;;;;2.70;1.35;;;21.20;1.00;;;;;;10359716;28;20198;-79
2023/07/25 16:23:45;;;;;;;3.17;1.40;;;21.10;1.00;;;;;;10386240;28;20273;-80
2023/07/25 16:29:07;;;;;;;2.35;1.20;;;20.90;1.00;;;;;;10414868;28;20550;-79
2023/07/25 16:34:30;;;;;;;1.70;1.30;;;20.80;1.00;;;;;;10398065;28;20228;-78
2023/07/25 16:39:52;;;;;;;2.78;1.27;;;20.70;1.00;;;;;;10373214;28;20435;-81
2023/07/25 16:45:14;;;;;;;1.70;1.10;;;20.80;1.00;;;;;;10331787;28;20202;-81
2023/07/25 16:50:36;;;;;;;2.15;1.23;;;20.70;1.00;;;;;;10372145;28;20500;-80
2023/07/25 16:55:57;;;;;;;5.25;1.33;;;20.70;1.00;;;;;;10359138;28;20248;-81
2023/07/25 17:01:19;;;;;;;3.30;2.05;;;20.60;1.00;;;;;;10376062;28;20277;-84
2023/07/25 17:06:41;;;;;;;4.60;1.15;;;20.50;1.00;;;;;;10355468;28;20212;-81
2023/07/25 17:12:03;;;;;;;2.05;1.25;;;20.30;1.00;;;;;;10357505;28;20503;-81
2023/07/25 17:17:26;;;;;;;3.35;2.22;;;20.30;1.00;;;;;;10370209;28;20244;-79
2023/07/25 17:22:49;;;;;;;3.10;1.60;;;20.30;1.00;;;;;;10388676;28;20212;-85
2023/07/25 17:28:10;;;;;;;1.70;1.20;;;20.30;1.00;;;;;;10342437;28;20193;-80
2023/07/25 17:33:32;;;;;;;1.38;1.00;;;20.30;1.00;;;;;;10358979;28;20558;-81
2023/07/25 17:38:54;;;;;;;2.90;1.08;;;20.20;1.00;;;;;;10388287;28;20240;-80
2023/07/25 17:44:15;;;;;;;2.42;1.77;;;20.10;1.00;;;;;;10341700;28;20205;-81
2023/07/25 17:49:36;;;;;;;1.83;1.23;;;20.00;1.00;;;;;;10354044;28;20383;-80
2023/07/25 17:54:58;;;;;;;2.50;1.48;;;19.90;1.00;;;;;;10356001;28;20239;-80
2023/07/25 18:00:20;;;;;;;2.70;1.52;;;19.80;1.00;;;;;;10355729;28;20214;-80
2023/07/25 18:05:44;;;;;;;4.35;2.00;;;19.80;1.00;;;;;;10352577;28;20280;-80
2023/07/25 18:11:07;;;;;;;2.88;1.75;;;19.80;1.00;;;;;;10355137;28;20210;-82
2023/07/25 18:16:29;;;;;;;2.28;1.42;;;19.70;1.00;;;;;;10354886;28;20231;-81
2023/07/25 18:21:50;;;;;;;2.50;1.60;;;19.70;1.00;;;;;;10339176;28;20523;-84
2023/07/25 18:27:12;;;;;;;1.90;1.20;;;19.60;1.00;;;;;;10355026;28;20189;-82
2023/07/25 18:32:33;;;;;;;3.58;1.70;;;19.50;1.00;;;;;;10367299;28;20546;-80
2023/07/25 18:37:55;;;;;;;19.33;16.85;;;19.50;1.00;;;;;;10367293;28;20296;-81
2023/07/25 18:43:19;;;;;;;14.60;10.10;;;19.50;1.00;;;;;;10340011;28;20398;-80
2023/07/25 18:48:40;;;;;;;6.32;5.25;;;19.40;1.00;;;;;;10353235;28;20269;-82
2023/07/25 18:54:02;;;;;;;4.53;3.45;;;19.30;1.00;;;;;;10350680;28;20222;-79
2023/07/25 18:59:23;;;;;;;4.80;2.33;;;19.30;1.00;;;;;;10349881;28;20394;-79
2023/07/25 19:04:45;;;;;;;5.10;2.75;;;19.20;1.00;;;;;;10364272;28;20224;-80
2023/07/25 19:10:08;;;;;;;72.78;64.65;;;19.10;1.00;;;;;;10368967;28;20244;-79
2023/07/25 19:15:30;;;;;;;26.33;21.27;;;19.00;1.00;;;;;;10352588;28;20222;-79
2023/07/25 19:20:51;;;;;;;4.05;3.17;;;18.90;1.00;;;;;;10318734;28;20216;-78
2023/07/25 19:26:13;;;;;;;4.72;2.00;;;18.80;1.00;;;;;;10375179;28;20209;-81
2023/07/25 19:31:34;;;;;;;3.03;1.73;;;18.60;1.00;;;;;;10416394;28;20287;-82
2023/07/25 19:36:56;;;;;;;18.02;13.38;;;18.40;1.00;;;;;;10416220;28;20413;-80
2023/07/25 19:42:18;;;;;;;29.73;24.23;;;18.30;1.00;;;;;;10377169;28;20204;-78
2023/07/25 19:47:39;;;;;;;18.35;14.13;;;;;;;;;;10401710;28;20264;-79
2023/07/25 19:53:01;;;;;;;5.45;4.20;;;18.10;1.00;;;;;;10392015;28;20281;-78
2023/07/25 19:58:23;;;;;;;6.75;4.93;;;;;;;;;;10359531;28;20275;-78
2023/07/25 20:03:45;;;;;;;4.78;3.70;;;17.80;1.00;;;;;;10359084;28;20197;-78
2023/07/25 20:09:07;;;;;;;3.47;2.30;;;;;;;;;;10357918;28;20275;-78
2023/07/25 20:14:28;;;;;;;2.60;1.67;;;17.80;1.00;;;;;;10327881;28;20413;-84
2023/07/25 20:19:50;;;;;;;3.17;1.58;;;17.50;1.00;;;;;;10359961;28;20591;-78
2023/07/25 20:25:14;;;;;;;8.98;1.83;;;17.40;1.00;;;;;;10371694;28;20627;-84
2023/07/25 20:30:36;;;;;;;3.63;1.55;;;17.30;1.00;;;;;;10399831;28;20200;-83
2023/07/25 20:35:58;;;;;;;1.80;1.25;;;17.20;1.00;;;;;;10360037;28;20237;-78
2023/07/25 20:41:19;;;;;;;4.28;1.30;;;17.20;1.00;;;;;;10358748;28;20244;-80
2023/07/25 20:46:41;;;;;;;3.15;1.67;;;17.10;1.00;;;;;;10353199;28;20202;-80
2023/07/25 20:52:03;;;;;;;3.35;1.63;;;17.00;1.00;;;;;;10369607;28;20229;-84
2023/07/25 20:57:24;;;;;;;3.63;1.70;;;16.90;2.60;;;;;;10373276;28;20245;-84
2023/07/25 21:02:49;;;;;;;2.67;1.50;;;16.80;61.00;;;;;;10358191;28;20379;-79
2023/07/25 21:08:10;;;;;;;2.72;1.48;;;16.70;99.90;;;;;;10355913;28;20209;-83
2023/07/25 21:13:32;;;;;;;3.08;1.73;;;16.70;99.90;;;;;;10357126;28;20510;-78
2023/07/25 21:18:53;;;;;;;5.47;1.55;;;16.70;99.90;;;;;;10363704;28;20303;-79
2023/07/25 21:24:15;;;;;;;2.00;1.30;;;16.70;99.90;;;;;;10412925;28;20204;-80
2023/07/25 21:29:37;;;;;;;2.45;1.42;;;16.60;99.90;;;;;;10397507;28;20252;-79
2023/07/25 21:34:59;;;;;;;4.70;2.03;;;16.50;99.90;;;;;;10390249;28;20450;-80
2023/07/25 21:40:21;;;;;;;5.15;1.98;;;16.40;99.90;;;;;;10380720;28;20231;-77
2023/07/25 21:45:42;;;;;;;6.13;1.85;;;16.30;1.00;;;;;;10355584;28;20198;-80
2023/07/25 21:51:03;;;;;;;3.55;1.52;;;16.20;1.00;;;;;;10354558;28;20197;-78
2023/07/25 21:56:25;;;;;;;4.65;1.55;;;16.20;1.00;;;;;;10370867;28;20235;-78
2023/07/25 22:01:50;;;;;;;6.32;1.60;;;16.10;1.00;;;;;;10355413;28;20388;-79
2023/07/25 22:07:11;;;;;;;2.28;1.52;;;16.10;1.00;;;;;;10354883;28;20204;-81
2023/07/25 22:12:32;;;;;;;2.90;1.63;;;16.10;1.00;;;;;;10370376;28;20242;-83
2023/07/25 22:17:54;;;;;;;9.82;1.63;;;16.10;1.00;;;;;;10352897;28;20263;-79
2023/07/25 22:23:16;;;;;;;3.28;1.05;;;16.20;1.00;;;;;;10353581;28;20210;-78
2023/07/25 22:28:38;;;;;;;2.67;1.50;;;16.10;1.00;;;;;;10354004;28;20204;-82
2023/07/25 22:34:02;;;;;;;1.88;1.48;;;16.10;1.00;;;;;;10353034;28;20251;-81
2023/07/25 22:39:23;;;;;;;2.72;1.58;;;16.10;1.00;;;;;;10333769;28;20207;-83
2023/07/25 22:44:45;;;;;;;2.58;1.40;;;16.10;1.00;;;;;;10314217;28;20202;-80
2023/07/25 22:50:07;;;;;;;7.88;1.60;;;16.00;1.00;;;;;;10338555;28;20213;-78
2023/07/25 22:55:32;;;;;;;4.70;1.75;;;16.00;1.00;;;;;;10380307;28;20694;-77
2023/07/25 23:00:54;;;;;;;3.20;1.67;;;15.90;1.00;;;;;;10365762;28;20243;-77
2023/07/25 23:06:15;;;;;;;3.28;1.58;;;15.80;60.90;;;;;;10367425;28;20195;-77
2023/07/25 23:11:37;;;;;;;3.20;2.13;;;15.90;1.00;;;;;;10352364;28;20287;-77
2023/07/25 23:16:58;;;;;;;3.13;1.70;;;15.70;99.90;;;;;;10413297;28;20235;-79
2023/07/25 23:22:20;;;;;;;5.15;1.85;;;15.60;99.90;;;;;;10327373;28;20227;-81
2023/07/25 23:27:41;;;;;;;2.28;1.42;;;15.60;1.00;;;;;;10326165;28;20204;-80
2023/07/25 23:33:03;;;;;;;6.15;1.73;;;15.60;1.00;;;;;;10399945;28;20392;-79
2023/07/25 23:38:25;;;;;;;3.83;1.73;;;15.60;30.50;;;;;;10393748;28;20228;-77
2023/07/25 23:43:46;;;;;;;5.28;2.00;;;15.60;48.80;;;;;;10352422;28;20279;-81
2023/07/25 23:49:08;;;;;;;3.88;2.10;;;15.60;1.00;;;;;;10384343;28;20204;-77
2023/07/25 23:54:30;;;;;;;3.30;1.73;;;15.60;1.00;;;;;;10398787;28;20414;-78
2023/07/25 23:59:51;;;;;;;6.78;3.28;;;15.60;99.90;;;;;;10366224;28;20200;-79
